createdAt,value
2022-12-11T00:07:13.000Z,13.50
2022-12-11T00:17:13.000Z,13.00
2022-12-11T00:27:13.000Z,14.30
2022-12-11T00:37:13.000Z,15.60
2022-12-11T00:47:13.000Z,16.70
2022-12-11T00:57:13.000Z,16.20
2022-12-11T01:07:13.000Z,18.00
2022-12-11T01:17:13.000Z,18.00
2022-12-11T01:27:12.000Z,17.60
2022-12-11T01:37:12.000Z,18.30
2022-12-11T01:47:12.000Z,18.50
2022-12-11T01:57:12.000Z,19.40
2022-12-11T02:07:12.000Z,19.60
2022-12-11T02:17:12.000Z,18.60
2022-12-11T02:27:12.000Z,17.90
2022-12-11T02:37:12.000Z,18.60
2022-12-11T02:47:12.000Z,16.40
2022-12-11T02:57:12.000Z,15.30
2022-12-11T03:07:12.000Z,13.50
2022-12-11T03:17:11.000Z,12.90
2022-12-11T03:27:11.000Z,13.30
2022-12-11T03:52:29.000Z,12.10
2022-12-11T03:52:29.000Z,12.10
2022-12-11T03:52:29.000Z,12.00
2022-12-11T04:02:29.000Z,12.80
2022-12-11T04:12:29.000Z,12.40
2022-12-11T04:22:29.000Z,13.10
2022-12-11T04:32:29.000Z,12.70
2022-12-11T04:42:29.000Z,11.80
2022-12-11T04:52:29.000Z,10.90
2022-12-11T05:02:28.000Z,11.50
2022-12-11T05:12:28.000Z,11.00
2022-12-11T05:22:28.000Z,11.50
2022-12-11T05:32:28.000Z,10.90
2022-12-11T05:42:28.000Z,11.30
2022-12-11T05:52:28.000Z,12.40
2022-12-11T06:02:28.000Z,11.00
2022-12-11T06:12:28.000Z,10.40
2022-12-11T06:22:28.000Z,10.60
2022-12-11T06:32:28.000Z,10.70
2022-12-11T06:42:28.000Z,11.10
2022-12-11T06:52:27.000Z,12.50
2022-12-11T07:02:27.000Z,11.80
2022-12-11T07:12:27.000Z,12.50
2022-12-11T07:22:27.000Z,11.90
2022-12-11T07:32:27.000Z,12.80
2022-12-11T07:42:27.000Z,12.00
2022-12-11T07:52:27.000Z,12.30
2022-12-11T08:02:27.000Z,12.80
2022-12-11T08:12:27.000Z,12.50
2022-12-11T08:22:27.000Z,12.70
2022-12-11T08:32:27.000Z,11.60
2022-12-11T08:42:26.000Z,12.80
2022-12-11T08:52:26.000Z,12.70
2022-12-11T09:02:26.000Z,13.40
2022-12-11T09:12:26.000Z,13.10
2022-12-11T09:22:26.000Z,13.10
2022-12-11T09:32:26.000Z,12.70
2022-12-11T09:42:26.000Z,12.70
2022-12-11T09:52:26.000Z,11.90
2022-12-11T10:02:26.000Z,13.50
2022-12-11T10:12:26.000Z,13.30
2022-12-11T10:22:26.000Z,14.30
2022-12-11T10:32:25.000Z,16.80
2022-12-11T10:42:25.000Z,14.90
2022-12-11T10:52:25.000Z,15.20
2022-12-11T11:02:25.000Z,15.80
2022-12-11T11:12:25.000Z,15.90
2022-12-11T11:22:25.000Z,16.30
2022-12-11T11:47:42.000Z,16.30
2022-12-11T11:47:42.000Z,16.40
2022-12-11T11:57:42.000Z,16.20
2022-12-11T12:07:42.000Z,17.70
2022-12-11T12:07:42.000Z,17.70
2022-12-11T12:17:42.000Z,18.00
2022-12-11T12:27:42.000Z,20.60
2022-12-11T12:37:42.000Z,21.00
2022-12-11T13:02:59.000Z,18.50
2022-12-11T13:02:59.000Z,20.20
2022-12-11T13:12:59.000Z,20.10
2022-12-11T13:22:59.000Z,18.80
2022-12-11T13:32:59.000Z,21.20
2022-12-11T13:42:59.000Z,20.80
2022-12-11T13:52:59.000Z,21.20
2022-12-11T14:02:59.000Z,20.00
2022-12-11T14:12:58.000Z,21.50
2022-12-11T14:22:58.000Z,22.00
2022-12-11T14:32:58.000Z,22.70
2022-12-11T14:42:58.000Z,22.70
2022-12-11T14:52:58.000Z,23.20
2022-12-11T15:18:15.000Z,22.60
2022-12-11T15:18:15.000Z,23.20
2022-12-11T15:28:15.000Z,22.80
2022-12-11T15:38:15.000Z,23.60
2022-12-11T15:48:15.000Z,23.80
2022-12-11T15:58:15.000Z,22.90
2022-12-11T16:08:14.000Z,23.80
2022-12-11T16:18:14.000Z,24.80
2022-12-11T16:28:14.000Z,25.50
2022-12-11T16:38:14.000Z,26.20
2022-12-11T16:48:14.000Z,26.20
2022-12-11T16:58:14.000Z,26.40
2022-12-11T17:08:14.000Z,30.60
2022-12-11T17:18:14.000Z,31.00
2022-12-11T17:28:14.000Z,31.00
2022-12-11T17:38:14.000Z,29.30
2022-12-11T17:48:14.000Z,31.00
2022-12-11T17:58:13.000Z,33.20
2022-12-11T18:08:13.000Z,34.00
2022-12-11T18:18:13.000Z,35.20
2022-12-11T18:28:13.000Z,34.00
2022-12-11T18:38:13.000Z,36.20
2022-12-11T18:48:13.000Z,34.70
2022-12-11T18:58:13.000Z,35.90
2022-12-11T19:08:13.000Z,37.10
2022-12-11T19:18:13.000Z,39.40
2022-12-11T19:28:13.000Z,39.80
2022-12-11T19:38:12.000Z,41.60
2022-12-11T19:48:12.000Z,41.40
2022-12-11T19:58:12.000Z,41.10
2022-12-11T19:58:12.000Z,41.10
2022-12-11T20:08:12.000Z,44.40
2022-12-11T20:18:12.000Z,45.30
2022-12-11T20:28:12.000Z,43.50
2022-12-11T20:38:12.000Z,46.00
2022-12-11T20:48:12.000Z,46.10
2022-12-11T20:58:12.000Z,46.70
2022-12-11T21:08:12.000Z,45.60
2022-12-11T21:18:12.000Z,44.70
2022-12-11T21:28:11.000Z,40.90
2022-12-11T21:38:11.000Z,39.80
2022-12-11T21:48:11.000Z,41.10
2022-12-11T21:58:11.000Z,43.00
2022-12-11T22:08:11.000Z,42.00
2022-12-11T22:18:11.000Z,42.40
2022-12-11T22:28:11.000Z,43.70
2022-12-11T22:38:11.000Z,43.20
2022-12-11T22:48:11.000Z,43.00
2022-12-11T22:58:11.000Z,41.80
2022-12-11T23:08:11.000Z,41.10
2022-12-11T23:18:10.000Z,39.70
2022-12-11T23:28:10.000Z,39.20
2022-12-11T23:38:10.000Z,38.80
2022-12-11T23:48:10.000Z,38.80
2022-12-11T23:58:10.000Z,39.60
